sensor_id;sensor_type;location;lat;lon;timestamp;pressure;altitude;pressure_sealevel;temperature;humidity
69624;BME280;56843;52.020;5.670;2022-07-25T00:00:03;100889.19;;;19.55;70.27
69624;BME280;56843;52.020;5.670;2022-07-25T00:01:35;100894.63;;;19.59;69.46
69624;BME280;56843;52.020;5.670;2022-07-25T00:03:05;100895.41;;;19.59;69.54
69624;BME280;56843;52.020;5.670;2022-07-25T00:04:35;100886.13;;;19.60;70.04
69624;BME280;56843;52.020;5.670;2022-07-25T00:06:06;100888.44;;;19.62;69.71
69624;BME280;56843;52.020;5.670;2022-07-25T00:07:37;100883.44;;;19.64;69.45
69624;BME280;56843;52.020;5.670;2022-07-25T00:09:08;100879.56;;;19.65;69.51
69624;BME280;56843;52.020;5.670;2022-07-25T00:10:40;100877.63;;;19.65;69.52
69624;BME280;56843;52.020;5.670;2022-07-25T00:12:11;100871.84;;;19.67;69.50
69624;BME280;56843;52.020;5.670;2022-07-25T00:13:41;100873.75;;;19.66;69.39
69624;BME280;56843;52.020;5.670;2022-07-25T00:15:12;100878.41;;;19.66;69.52
69624;BME280;56843;52.020;5.670;2022-07-25T00:16:42;100883.81;;;19.66;69.23
69624;BME280;56843;52.020;5.670;2022-07-25T00:18:13;100869.50;;;19.65;69.20
69624;BME280;56843;52.020;5.670;2022-07-25T00:19:43;100874.13;;;19.61;69.79
69624;BME280;56843;52.020;5.670;2022-07-25T00:21:15;100871.41;;;19.61;69.42
69624;BME280;56843;52.020;5.670;2022-07-25T00:22:45;100869.88;;;19.60;69.51
69624;BME280;56843;52.020;5.670;2022-07-25T00:24:16;100867.91;;;19.57;69.48
69624;BME280;56843;52.020;5.670;2022-07-25T00:25:46;100859.41;;;19.55;69.67
69624;BME280;56843;52.020;5.670;2022-07-25T00:27:17;100862.91;;;19.56;70.08
69624;BME280;56843;52.020;5.670;2022-07-25T00:28:47;100865.97;;;19.54;70.03
69624;BME280;56843;52.020;5.670;2022-07-25T00:30:18;100866.75;;;19.55;70.04
69624;BME280;56843;52.020;5.670;2022-07-25T00:31:48;100859.72;;;19.50;69.85
69624;BME280;56843;52.020;5.670;2022-07-25T00:33:19;100853.53;;;19.50;70.28
69624;BME280;56843;52.020;5.670;2022-07-25T00:34:49;100849.28;;;19.49;69.96
69624;BME280;56843;52.020;5.670;2022-07-25T00:36:20;100845.78;;;19.48;70.44
69624;BME280;56843;52.020;5.670;2022-07-25T00:37:50;100839.59;;;19.48;69.96
69624;BME280;56843;52.020;5.670;2022-07-25T00:39:21;100838.44;;;19.49;69.92
69624;BME280;56843;52.020;5.670;2022-07-25T00:40:51;100837.28;;;19.50;69.85
69624;BME280;56843;52.020;5.670;2022-07-25T00:42:22;100835.75;;;19.52;69.97
69624;BME280;56843;52.020;5.670;2022-07-25T00:43:55;100833.09;;;19.56;69.71
69624;BME280;56843;52.020;5.670;2022-07-25T00:45:26;100826.16;;;19.58;69.82
69624;BME280;56843;52.020;5.670;2022-07-25T00:46:57;100827.28;;;19.57;69.43
69624;BME280;56843;52.020;5.670;2022-07-25T00:48:28;100826.91;;;19.59;69.19
69624;BME280;56843;52.020;5.670;2022-07-25T00:49:58;100816.06;;;19.59;69.25
69624;BME280;56843;52.020;5.670;2022-07-25T00:51:29;100817.22;;;19.61;69.09
69624;BME280;56843;52.020;5.670;2022-07-25T00:53:00;100816.47;;;19.64;69.05
69624;BME280;56843;52.020;5.670;2022-07-25T00:54:32;100821.09;;;19.67;68.57
69624;BME280;56843;52.020;5.670;2022-07-25T00:56:04;100811.44;;;19.66;68.88
69624;BME280;56843;52.020;5.670;2022-07-25T00:57:34;100819.19;;;19.68;68.84
69624;BME280;56843;52.020;5.670;2022-07-25T00:59:05;100815.72;;;19.71;68.65
69624;BME280;56843;52.020;5.670;2022-07-25T01:00:35;100819.22;;;19.71;68.27
69624;BME280;56843;52.020;5.670;2022-07-25T01:02:06;100822.31;;;19.73;68.08
69624;BME280;56843;52.020;5.670;2022-07-25T01:03:36;100814.97;;;19.74;68.41
69624;BME280;56843;52.020;5.670;2022-07-25T01:05:07;100814.56;;;19.75;68.17
69624;BME280;56843;52.020;5.670;2022-07-25T01:06:38;100803.72;;;19.79;67.96
69624;BME280;56843;52.020;5.670;2022-07-25T01:08:09;100805.69;;;19.82;68.01
69624;BME280;56843;52.020;5.670;2022-07-25T01:09:39;100808.78;;;19.84;67.67
69624;BME280;56843;52.020;5.670;2022-07-25T01:11:10;100799.50;;;19.85;67.46
69624;BME280;56843;52.020;5.670;2022-07-25T01:12:50;100795.22;;;19.88;67.62
69624;BME280;56843;52.020;5.670;2022-07-25T01:14:21;100789.41;;;19.86;67.38
69624;BME280;56843;52.020;5.670;2022-07-25T01:15:52;100785.16;;;19.88;67.36
69624;BME280;56843;52.020;5.670;2022-07-25T01:17:24;100792.91;;;19.86;67.09
69624;BME280;56843;52.020;5.670;2022-07-25T01:18:55;100784.78;;;19.86;67.14
69624;BME280;56843;52.020;5.670;2022-07-25T01:20:27;100781.28;;;19.86;67.35
69624;BME280;56843;52.020;5.670;2022-07-25T01:21:58;100780.91;;;19.87;67.24
69624;BME280;56843;52.020;5.670;2022-07-25T01:23:28;100777.03;;;19.85;67.28
69624;BME280;56843;52.020;5.670;2022-07-25T01:24:59;100781.28;;;19.86;67.33
69624;BME280;56843;52.020;5.670;2022-07-25T01:26:30;100779.34;;;19.86;67.30
69624;BME280;56843;52.020;5.670;2022-07-25T01:28:01;100779.75;;;19.85;67.30
69624;BME280;56843;52.020;5.670;2022-07-25T01:29:31;100769.28;;;19.90;66.71
69624;BME280;56843;52.020;5.670;2022-07-25T01:31:02;100775.09;;;19.92;66.91
69624;BME280;56843;52.020;5.670;2022-07-25T01:32:33;100780.91;;;19.94;67.00
69624;BME280;56843;52.020;5.670;2022-07-25T01:34:03;100771.63;;;19.95;66.78
69624;BME280;56843;52.020;5.670;2022-07-25T01:35:34;100769.28;;;19.97;66.58
69624;BME280;56843;52.020;5.670;2022-07-25T01:37:04;100768.50;;;19.97;66.26
69624;BME280;56843;52.020;5.670;2022-07-25T01:38:35;100773.16;;;20.00;66.42
69624;BME280;56843;52.020;5.670;2022-07-25T01:40:06;100764.66;;;19.98;66.20
69624;BME280;56843;52.020;5.670;2022-07-25T01:41:39;100768.53;;;20.00;66.41
69624;BME280;56843;52.020;5.670;2022-07-25T01:43:10;100764.63;;;20.01;66.40
69624;BME280;56843;52.020;5.670;2022-07-25T01:44:43;100765.44;;;20.02;66.27
69624;BME280;56843;52.020;5.670;2022-07-25T01:46:14;100772.41;;;20.03;66.40
69624;BME280;56843;52.020;5.670;2022-07-25T01:47:44;100762.72;;;20.02;66.36
69624;BME280;56843;52.020;5.670;2022-07-25T01:49:15;100764.63;;;20.01;66.39
69624;BME280;56843;52.020;5.670;2022-07-25T01:50:45;100766.59;;;20.04;66.18
69624;BME280;56843;52.020;5.670;2022-07-25T01:52:16;100754.97;;;20.04;65.98
69624;BME280;56843;52.020;5.670;2022-07-25T01:53:47;100754.56;;;20.05;66.08
69624;BME280;56843;52.020;5.670;2022-07-25T01:55:17;100753.41;;;20.06;65.94
69624;BME280;56843;52.020;5.670;2022-07-25T01:56:48;100749.94;;;20.06;66.12
69624;BME280;56843;52.020;5.670;2022-07-25T01:58:18;100753.03;;;20.08;66.06
69624;BME280;56843;52.020;5.670;2022-07-25T01:59:50;100753.03;;;20.08;65.87
69624;BME280;56843;52.020;5.670;2022-07-25T02:01:22;100754.59;;;20.09;65.94
69624;BME280;56843;52.020;5.670;2022-07-25T02:02:53;100746.44;;;20.09;66.15
69624;BME280;56843;52.020;5.670;2022-07-25T02:04:43;100747.59;;;20.08;66.14
69624;BME280;56843;52.020;5.670;2022-07-25T02:06:14;100739.47;;;20.08;65.91
69624;BME280;56843;52.020;5.670;2022-07-25T02:07:44;100744.53;;;20.09;65.82
69624;BME280;56843;52.020;5.670;2022-07-25T02:09:14;100738.69;;;20.11;66.02
69624;BME280;56843;52.020;5.670;2022-07-25T02:10:45;100734.06;;;20.11;65.84
69624;BME280;56843;52.020;5.670;2022-07-25T02:12:15;100733.66;;;20.13;65.50
69624;BME280;56843;52.020;5.670;2022-07-25T02:13:46;100725.13;;;20.14;65.68
69624;BME280;56843;52.020;5.670;2022-07-25T02:15:17;100731.72;;;20.17;65.31
69624;BME280;56843;52.020;5.670;2022-07-25T02:16:48;100722.03;;;20.19;64.96
69624;BME280;56843;52.020;5.670;2022-07-25T02:18:19;100720.09;;;20.20;65.05
69624;BME280;56843;52.020;5.670;2022-07-25T02:19:49;100719.31;;;20.23;64.93
69624;BME280;56843;52.020;5.670;2022-07-25T02:21:20;100718.94;;;20.24;64.59
69624;BME280;56843;52.020;5.670;2022-07-25T02:22:50;100716.59;;;20.26;64.45
69624;BME280;56843;52.020;5.670;2022-07-25T02:24:21;100711.16;;;20.30;64.38
69624;BME280;56843;52.020;5.670;2022-07-25T02:25:51;100715.44;;;20.31;64.32
69624;BME280;56843;52.020;5.670;2022-07-25T02:27:22;100703.81;;;20.34;64.50
69624;BME280;56843;52.020;5.670;2022-07-25T02:28:52;100707.31;;;20.34;64.56
69624;BME280;56843;52.020;5.670;2022-07-25T02:30:23;100702.66;;;20.35;64.09
69624;BME280;56843;52.020;5.670;2022-07-25T02:31:53;100704.59;;;20.34;64.43
69624;BME280;56843;52.020;5.670;2022-07-25T02:33:23;100710.81;;;20.35;64.07
69624;BME280;56843;52.020;5.670;2022-07-25T02:34:54;100711.97;;;20.34;64.46
69624;BME280;56843;52.020;5.670;2022-07-25T02:36:24;100714.69;;;20.34;64.16
69624;BME280;56843;52.020;5.670;2022-07-25T02:37:55;100708.88;;;20.35;63.96
69624;BME280;56843;52.020;5.670;2022-07-25T02:39:26;100708.06;;;20.38;63.71
69624;BME280;56843;52.020;5.670;2022-07-25T02:40:57;100706.94;;;20.39;63.47
69624;BME280;56843;52.020;5.670;2022-07-25T02:42:27;100714.28;;;20.39;63.51
69624;BME280;56843;52.020;5.670;2022-07-25T02:43:57;100709.66;;;20.39;63.44
69624;BME280;56843;52.020;5.670;2022-07-25T02:45:28;100694.50;;;20.38;63.57
69624;BME280;56843;52.020;5.670;2022-07-25T02:46:58;100703.06;;;20.37;63.15
69624;BME280;56843;52.020;5.670;2022-07-25T02:48:29;100697.25;;;20.35;63.54
69624;BME280;56843;52.020;5.670;2022-07-25T02:49:59;100696.47;;;20.31;63.26
69624;BME280;56843;52.020;5.670;2022-07-25T02:51:30;100695.69;;;20.27;63.54
69624;BME280;56843;52.020;5.670;2022-07-25T02:53:00;100696.44;;;20.27;63.38
69624;BME280;56843;52.020;5.670;2022-07-25T02:54:31;100688.31;;;20.24;63.33
69624;BME280;56843;52.020;5.670;2022-07-25T02:56:01;100688.72;;;20.22;63.59
69624;BME280;56843;52.020;5.670;2022-07-25T02:57:32;100696.84;;;20.19;63.54
69624;BME280;56843;52.020;5.670;2022-07-25T02:59:02;100692.97;;;20.16;63.99
69624;BME280;56843;52.020;5.670;2022-07-25T03:00:33;100685.25;;;20.11;63.97
69624;BME280;56843;52.020;5.670;2022-07-25T03:02:04;100699.59;;;20.08;64.02
69624;BME280;56843;52.020;5.670;2022-07-25T03:03:34;100695.31;;;20.04;64.43
69624;BME280;56843;52.020;5.670;2022-07-25T03:05:06;100681.00;;;20.00;64.21
69624;BME280;56843;52.020;5.670;2022-07-25T03:06:37;100691.84;;;19.96;64.46
69624;BME280;56843;52.020;5.670;2022-07-25T03:08:07;100683.72;;;19.93;64.55
69624;BME280;56843;52.020;5.670;2022-07-25T03:09:38;100688.75;;;19.91;64.76
69624;BME280;56843;52.020;5.670;2022-07-25T03:11:10;100688.75;;;19.87;64.98
69624;BME280;56843;52.020;5.670;2022-07-25T03:12:41;100687.22;;;19.83;65.16
69624;BME280;56843;52.020;5.670;2022-07-25T03:14:13;100684.50;;;19.79;65.26
69624;BME280;56843;52.020;5.670;2022-07-25T03:15:44;100686.44;;;19.75;65.30
69624;BME280;56843;52.020;5.670;2022-07-25T03:17:15;100681.03;;;19.71;65.41
69624;BME280;56843;52.020;5.670;2022-07-25T03:18:46;100687.59;;;19.67;65.84
69624;BME280;56843;52.020;5.670;2022-07-25T03:20:16;100677.91;;;19.62;65.85
69624;BME280;56843;52.020;5.670;2022-07-25T03:21:47;100691.81;;;19.61;65.98
69624;BME280;56843;52.020;5.670;2022-07-25T03:23:18;100687.19;;;19.58;66.00
69624;BME280;56843;52.020;5.670;2022-07-25T03:24:48;100687.53;;;19.53;66.05
69624;BME280;56843;52.020;5.670;2022-07-25T03:26:19;100686.38;;;19.50;66.55
69624;BME280;56843;52.020;5.670;2022-07-25T03:27:50;100682.88;;;19.46;66.29
69624;BME280;56843;52.020;5.670;2022-07-25T03:29:20;100684.81;;;19.46;66.55
69624;BME280;56843;52.020;5.670;2022-07-25T03:30:51;100684.81;;;19.42;66.66
69624;BME280;56843;52.020;5.670;2022-07-25T03:32:21;100670.50;;;19.42;66.19
69624;BME280;56843;52.020;5.670;2022-07-25T03:33:52;100661.59;;;19.38;66.50
69624;BME280;56843;52.020;5.670;2022-07-25T03:35:23;100669.34;;;19.39;66.65
69624;BME280;56843;52.020;5.670;2022-07-25T03:36:54;100673.22;;;19.38;66.94
69624;BME280;56843;52.020;5.670;2022-07-25T03:38:25;100667.41;;;19.36;66.98
69624;BME280;56843;52.020;5.670;2022-07-25T03:39:58;100663.53;;;19.37;66.96
69624;BME280;56843;52.020;5.670;2022-07-25T03:41:28;100671.66;;;19.37;67.07
69624;BME280;56843;52.020;5.670;2022-07-25T03:42:58;100671.66;;;19.37;67.31
69624;BME280;56843;52.020;5.670;2022-07-25T03:44:29;100672.03;;;19.36;67.71
69624;BME280;56843;52.020;5.670;2022-07-25T03:45:59;100669.69;;;19.34;67.66
69624;BME280;56843;52.020;5.670;2022-07-25T03:47:30;100667.38;;;19.33;67.72
69624;BME280;56843;52.020;5.670;2022-07-25T03:49:00;100667.41;;;19.29;67.98
69624;BME280;56843;52.020;5.670;2022-07-25T03:50:31;100662.34;;;19.28;67.96
69624;BME280;56843;52.020;5.670;2022-07-25T03:52:02;100660.81;;;19.27;68.22
69624;BME280;56843;52.020;5.670;2022-07-25T03:53:32;100670.06;;;19.26;68.18
69624;BME280;56843;52.020;5.670;2022-07-25T03:55:23;100655.78;;;19.18;68.41
69624;BME280;56843;52.020;5.670;2022-07-25T03:56:53;100666.97;;;19.20;68.42
69624;BME280;56843;52.020;5.670;2022-07-25T03:58:24;100660.00;;;19.19;68.45
69624;BME280;56843;52.020;5.670;2022-07-25T03:59:54;100660.00;;;19.19;68.96
69624;BME280;56843;52.020;5.670;2022-07-25T04:01:25;100657.31;;;19.16;68.90
69624;BME280;56843;52.020;5.670;2022-07-25T04:02:55;100654.59;;;19.12;69.08
69624;BME280;56843;52.020;5.670;2022-07-25T04:04:25;100655.34;;;19.09;68.89
69624;BME280;56843;52.020;5.670;2022-07-25T04:05:56;100649.94;;;19.09;69.24
69624;BME280;56843;52.020;5.670;2022-07-25T04:07:26;100642.97;;;19.08;69.18
69624;BME280;56843;52.020;5.670;2022-07-25T04:08:57;100641.81;;;19.09;68.88
69624;BME280;56843;52.020;5.670;2022-07-25T04:10:27;100639.13;;;19.09;69.15
69624;BME280;56843;52.020;5.670;2022-07-25T04:11:58;100634.84;;;19.08;69.11
69624;BME280;56843;52.020;5.670;2022-07-25T04:13:30;100636.00;;;19.11;68.90
69624;BME280;56843;52.020;5.670;2022-07-25T04:15:01;100632.94;;;19.12;68.97
69624;BME280;56843;52.020;5.670;2022-07-25T04:16:31;100636.78;;;19.15;68.88
69624;BME280;56843;52.020;5.670;2022-07-25T04:18:02;100636.44;;;19.16;68.76
69624;BME280;56843;52.020;5.670;2022-07-25T04:19:32;100645.69;;;19.15;68.78
69624;BME280;56843;52.020;5.670;2022-07-25T04:21:04;100643.41;;;19.21;68.59
69624;BME280;56843;52.020;5.670;2022-07-25T04:22:34;100644.53;;;19.23;68.34
69624;BME280;56843;52.020;5.670;2022-07-25T04:24:06;100641.06;;;19.26;68.24
69624;BME280;56843;52.020;5.670;2022-07-25T04:25:36;100646.09;;;19.28;68.32
69624;BME280;56843;52.020;5.670;2022-07-25T04:27:07;100643.81;;;19.30;68.18
69624;BME280;56843;52.020;5.670;2022-07-25T04:28:37;100642.25;;;19.32;67.88
69624;BME280;56843;52.020;5.670;2022-07-25T04:30:08;100634.91;;;19.36;67.70
69624;BME280;56843;52.020;5.670;2022-07-25T04:31:39;100643.41;;;19.42;67.34
69624;BME280;56843;52.020;5.670;2022-07-25T04:33:11;100639.16;;;19.44;67.33
69624;BME280;56843;52.020;5.670;2022-07-25T04:34:48;100634.53;;;19.48;67.58
69624;BME280;56843;52.020;5.670;2022-07-25T04:37:07;100626.38;;;19.41;67.18
69624;BME280;56843;52.020;5.670;2022-07-25T04:39:10;100640.31;;;19.50;67.39
69624;BME280;56843;52.020;5.670;2022-07-25T04:43:21;100638.06;;;19.56;66.98
69624;BME280;56843;52.020;5.670;2022-07-25T04:45:09;100636.09;;;19.63;66.53
69624;BME280;56843;52.020;5.670;2022-07-25T04:46:40;100630.31;;;19.68;66.76
69624;BME280;56843;52.020;5.670;2022-07-25T04:48:11;100620.22;;;19.72;66.23
69624;BME280;56843;52.020;5.670;2022-07-25T04:49:42;100626.03;;;19.74;66.12
69624;BME280;56843;52.020;5.670;2022-07-25T04:51:12;100634.19;;;19.78;66.33
69624;BME280;56843;52.020;5.670;2022-07-25T04:52:43;100634.56;;;19.80;66.26
69624;BME280;56843;52.020;5.670;2022-07-25T04:54:13;100638.44;;;19.83;66.03
69624;BME280;56843;52.020;5.670;2022-07-25T04:55:44;100631.84;;;19.84;66.00
69624;BME280;56843;52.020;5.670;2022-07-25T04:57:15;100634.94;;;19.86;66.21
69624;BME280;56843;52.020;5.670;2022-07-25T04:58:45;100631.84;;;19.91;65.79
69624;BME280;56843;52.020;5.670;2022-07-25T05:00:16;100632.59;;;19.98;65.86
69624;BME280;56843;52.020;5.670;2022-07-25T05:01:48;100629.50;;;20.07;65.60
69624;BME280;56843;52.020;5.670;2022-07-25T05:03:18;100638.00;;;20.16;65.36
69624;BME280;56843;52.020;5.670;2022-07-25T05:04:49;100633.69;;;20.25;65.02
69624;BME280;56843;52.020;5.670;2022-07-25T05:06:19;100635.25;;;20.37;64.42
69624;BME280;56843;52.020;5.670;2022-07-25T05:07:55;100627.47;;;20.46;64.21
69624;BME280;56843;52.020;5.670;2022-07-25T05:09:28;100634.03;;;20.56;64.33
69624;BME280;56843;52.020;5.670;2022-07-25T05:10:59;100630.50;;;20.62;63.63
69624;BME280;56843;52.020;5.670;2022-07-25T05:12:29;100626.22;;;20.68;63.73
69624;BME280;56843;52.020;5.670;2022-07-25T05:14:00;100625.81;;;20.73;63.53
69624;BME280;56843;52.020;5.670;2022-07-25T05:15:30;100623.06;;;20.80;63.26
69624;BME280;56843;52.020;5.670;2022-07-25T05:17:01;100628.06;;;20.85;62.88
69624;BME280;56843;52.020;5.670;2022-07-25T05:18:33;100628.06;;;20.89;63.00
69624;BME280;56843;52.020;5.670;2022-07-25T05:20:03;100622.22;;;20.90;62.62
69624;BME280;56843;52.020;5.670;2022-07-25T05:21:34;100629.19;;;20.91;62.95
69624;BME280;56843;52.020;5.670;2022-07-25T05:23:05;100625.72;;;20.91;62.59
69624;BME280;56843;52.020;5.670;2022-07-25T05:24:37;100618.72;;;20.90;62.58
69624;BME280;56843;52.020;5.670;2022-07-25T05:26:07;100603.25;;;20.87;62.93
69624;BME280;56843;52.020;5.670;2022-07-25T05:27:38;100614.88;;;20.87;62.64
69624;BME280;56843;52.020;5.670;2022-07-25T05:29:09;100609.84;;;20.86;62.33
69624;BME280;56843;52.020;5.670;2022-07-25T05:30:40;100603.63;;;20.85;62.43
69624;BME280;56843;52.020;5.670;2022-07-25T05:32:10;100600.91;;;20.85;62.36
69624;BME280;56843;52.020;5.670;2022-07-25T05:33:41;100609.06;;;20.89;62.06
69624;BME280;56843;52.020;5.670;2022-07-25T05:35:11;100607.44;;;20.98;62.32
69624;BME280;56843;52.020;5.670;2022-07-25T05:36:42;100616.31;;;21.09;61.74
69624;BME280;56843;52.020;5.670;2022-07-25T05:38:12;100612.78;;;21.16;61.53
69624;BME280;56843;52.020;5.670;2022-07-25T05:39:43;100610.00;;;21.27;61.22
69624;BME280;56843;52.020;5.670;2022-07-25T05:41:13;100609.09;;;21.40;60.71
69624;BME280;56843;52.020;5.670;2022-07-25T05:42:45;100613.66;;;21.54;60.41
69624;BME280;56843;52.020;5.670;2022-07-25T05:44:15;100619.41;;;21.66;60.30
69624;BME280;56843;52.020;5.670;2022-07-25T05:45:58;100619.69;;;21.75;59.85
69624;BME280;56843;52.020;5.670;2022-07-25T05:47:37;100613.81;;;21.84;59.52
69624;BME280;56843;52.020;5.670;2022-07-25T05:49:07;100620.31;;;21.93;59.54
69624;BME280;56843;52.020;5.670;2022-07-25T05:50:40;100611.66;;;22.06;59.00
69624;BME280;56843;52.020;5.670;2022-07-25T05:52:12;100614.59;;;22.22;58.43
69624;BME280;56843;52.020;5.670;2022-07-25T05:53:42;100614.03;;;22.37;57.61
69624;BME280;56843;52.020;5.670;2022-07-25T05:55:13;100617.31;;;22.55;57.35
69624;BME280;56843;52.020;5.670;2022-07-25T05:56:44;100619.06;;;22.73;57.41
69624;BME280;56843;52.020;5.670;2022-07-25T05:58:14;100616.50;;;22.89;56.76
69624;BME280;56843;52.020;5.670;2022-07-25T05:59:44;100623.34;;;23.00;56.49
69624;BME280;56843;52.020;5.670;2022-07-25T06:01:15;100631.34;;;23.11;56.10
69624;BME280;56843;52.020;5.670;2022-07-25T06:02:46;100629.66;;;23.20;55.68
69624;BME280;56843;52.020;5.670;2022-07-25T06:04:16;100628.06;;;23.23;55.88
69624;BME280;56843;52.020;5.670;2022-07-25T06:05:47;100628.03;;;23.26;55.96
69624;BME280;56843;52.020;5.670;2022-07-25T06:07:20;100629.94;;;23.29;55.80
69624;BME280;56843;52.020;5.670;2022-07-25T06:08:50;100636.53;;;23.32;55.49
69624;BME280;56843;52.020;5.670;2022-07-25T06:10:21;100635.69;;;23.35;55.55
69624;BME280;56843;52.020;5.670;2022-07-25T06:11:52;100632.50;;;23.40;55.64
69624;BME280;56843;52.020;5.670;2022-07-25T06:13:22;100635.84;;;23.51;55.26
69624;BME280;56843;52.020;5.670;2022-07-25T06:14:53;100643.47;;;23.60;55.04
69624;BME280;56843;52.020;5.670;2022-07-25T06:16:24;100640.22;;;23.68;54.94
69624;BME280;56843;52.020;5.670;2022-07-25T06:17:55;100639.69;;;23.77;54.81
69624;BME280;56843;52.020;5.670;2022-07-25T06:19:25;100641.16;;;23.81;54.99
69624;BME280;56843;52.020;5.670;2022-07-25T06:20:56;100651.25;;;23.84;54.64
69624;BME280;56843;52.020;5.670;2022-07-25T06:22:26;100648.09;;;23.86;54.66
69624;BME280;56843;52.020;5.670;2022-07-25T06:23:57;100641.81;;;23.89;54.68
69624;BME280;56843;52.020;5.670;2022-07-25T06:25:27;100646.06;;;23.93;54.37
69624;BME280;56843;52.020;5.670;2022-07-25T06:26:57;100638.22;;;23.95;54.43
69624;BME280;56843;52.020;5.670;2022-07-25T06:28:29;100639.69;;;24.00;54.15
69624;BME280;56843;52.020;5.670;2022-07-25T06:29:59;100644.72;;;24.01;53.90
69624;BME280;56843;52.020;5.670;2022-07-25T06:31:31;100643.09;;;24.07;53.92
69624;BME280;56843;52.020;5.670;2022-07-25T06:33:02;100642.53;;;24.16;53.61
69624;BME280;56843;52.020;5.670;2022-07-25T06:34:32;100636.16;;;24.23;53.48
69624;BME280;56843;52.020;5.670;2022-07-25T06:36:04;100652.06;;;24.28;53.51
69624;BME280;56843;52.020;5.670;2022-07-25T06:37:36;100649.69;;;24.30;53.35
69624;BME280;56843;52.020;5.670;2022-07-25T06:39:08;100644.34;;;24.42;52.93
69624;BME280;56843;52.020;5.670;2022-07-25T06:40:38;100648.56;;;24.66;52.48
69624;BME280;56843;52.020;5.670;2022-07-25T06:42:09;100650.63;;;24.98;51.51
69624;BME280;56843;52.020;5.670;2022-07-25T06:43:39;100635.41;;;25.33;50.55
69624;BME280;56843;52.020;5.670;2022-07-25T06:45:10;100643.78;;;25.58;49.98
69624;BME280;56843;52.020;5.670;2022-07-25T06:46:41;100644.88;;;25.77;49.32
69624;BME280;56843;52.020;5.670;2022-07-25T06:48:15;100654.28;;;25.76;49.29
69624;BME280;56843;52.020;5.670;2022-07-25T06:49:47;100655.97;;;25.70;49.74
69624;BME280;56843;52.020;5.670;2022-07-25T06:51:17;100653.06;;;25.77;49.51
69624;BME280;56843;52.020;5.670;2022-07-25T06:52:48;100657.72;;;25.96;48.75
69624;BME280;56843;52.020;5.670;2022-07-25T06:54:18;100654.19;;;25.95;48.69
69624;BME280;56843;52.020;5.670;2022-07-25T06:55:49;100652.00;;;26.19;47.93
69624;BME280;56843;52.020;5.670;2022-07-25T06:57:19;100652.03;;;26.32;47.60
69624;BME280;56843;52.020;5.670;2022-07-25T06:58:50;100664.66;;;26.58;46.94
69624;BME280;56843;52.020;5.670;2022-07-25T07:00:22;100650.88;;;26.99;45.55
69624;BME280;56843;52.020;5.670;2022-07-25T07:01:52;100660.25;;;27.39;45.02
69624;BME280;56843;52.020;5.670;2022-07-25T07:03:23;100662.75;;;27.93;43.51
69624;BME280;56843;52.020;5.670;2022-07-25T07:04:53;100653.75;;;28.49;42.22
69624;BME280;56843;52.020;5.670;2022-07-25T07:06:24;100653.31;;;29.02;41.54
69624;BME280;56843;52.020;5.670;2022-07-25T07:07:55;100655.66;;;29.62;40.24
69624;BME280;56843;52.020;5.670;2022-07-25T07:09:25;100648.06;;;30.20;39.08
69624;BME280;56843;52.020;5.670;2022-07-25T07:10:56;100654.56;;;30.68;37.98
69624;BME280;56843;52.020;5.670;2022-07-25T07:12:26;100650.78;;;31.07;37.33
69624;BME280;56843;52.020;5.670;2022-07-25T07:13:57;100642.94;;;31.39;36.29
69624;BME280;56843;52.020;5.670;2022-07-25T07:15:27;100641.03;;;31.77;35.50
69624;BME280;56843;52.020;5.670;2022-07-25T07:16:57;100643.81;;;32.16;34.87
69624;BME280;56843;52.020;5.670;2022-07-25T07:18:28;100643.06;;;32.15;34.82
69624;BME280;56843;52.020;5.670;2022-07-25T07:19:58;100627.63;;;31.85;34.53
69624;BME280;56843;52.020;5.670;2022-07-25T07:21:29;100638.19;;;31.39;35.41
69624;BME280;56843;52.020;5.670;2022-07-25T07:22:59;100627.25;;;30.88;35.92
69624;BME280;56843;52.020;5.670;2022-07-25T07:24:29;100632.28;;;30.48;36.17
69624;BME280;56843;52.020;5.670;2022-07-25T07:26:00;100636.59;;;30.13;36.52
69624;BME280;56843;52.020;5.670;2022-07-25T07:27:30;100637.78;;;29.75;36.43
69624;BME280;56843;52.020;5.670;2022-07-25T07:29:01;100636.81;;;29.42;37.19
69624;BME280;56843;52.020;5.670;2022-07-25T07:30:34;100632.91;;;29.22;37.39
69624;BME280;56843;52.020;5.670;2022-07-25T07:32:05;100632.91;;;29.22;37.63
69624;BME280;56843;52.020;5.670;2022-07-25T07:33:36;100644.00;;;29.40;37.11
69624;BME280;56843;52.020;5.670;2022-07-25T07:35:07;100640.81;;;29.59;36.71
69624;BME280;56843;52.020;5.670;2022-07-25T07:36:40;100630.28;;;29.67;36.59
69624;BME280;56843;52.020;5.670;2022-07-25T07:38:10;100632.25;;;29.57;36.47
69624;BME280;56843;52.020;5.670;2022-07-25T07:39:41;100629.03;;;29.41;36.54
69624;BME280;56843;52.020;5.670;2022-07-25T07:41:11;100623.19;;;29.48;36.22
69624;BME280;56843;52.020;5.670;2022-07-25T07:42:45;100628.31;;;30.04;35.09
69624;BME280;56843;52.020;5.670;2022-07-25T07:44:16;100643.38;;;30.72;33.50
69624;BME280;56843;52.020;5.670;2022-07-25T07:45:47;100634.41;;;30.95;32.92
69624;BME280;56843;52.020;5.670;2022-07-25T07:47:17;100642.75;;;30.77;33.21
69624;BME280;56843;52.020;5.670;2022-07-25T07:48:50;100645.59;;;30.40;33.26
69624;BME280;56843;52.020;5.670;2022-07-25T07:50:26;100640.72;;;29.99;33.79
69624;BME280;56843;52.020;5.670;2022-07-25T07:51:57;100647.69;;;29.64;34.57
69624;BME280;56843;52.020;5.670;2022-07-25T07:53:27;100644.75;;;29.40;35.14
69624;BME280;56843;52.020;5.670;2022-07-25T07:55:17;100652.69;;;28.98;35.85
69624;BME280;56843;52.020;5.670;2022-07-25T07:57:06;100659.38;;;28.67;36.28
69624;BME280;56843;52.020;5.670;2022-07-25T07:58:37;100661.81;;;28.43;37.27
69624;BME280;56843;52.020;5.670;2022-07-25T08:00:08;100669.38;;;28.17;37.89